Time;durP1;ratioP1;P1;durP2;ratioP2;P2;SDS_P1;SDS_P2;PMS_P1;PMS_P2;Temp;Humidity;BMP_temperature;BMP_pressure;BME280_temperature;BME280_humidity;BME280_pressure;Samples;Min_cycle;Max_cycle;Signal;HPM_P1;HPM_P2
2021/05/04 00:01:56;;;;;;;7.40;6.53;;;8.90;99.90;;;;;;5071241;28;20195;-72
2021/05/04 00:04:24;;;;;;;10.13;6.10;;;8.90;99.90;;;;;;5079535;28;20194;-70
2021/05/04 00:06:52;;;;;;;8.37;5.30;;;8.80;99.90;;;;;;5067795;28;20226;-71
2021/05/04 00:09:18;;;;;;;6.37;5.73;;;8.80;99.90;;;;;;5076118;28;20222;-72
2021/05/04 00:11:45;;;;;;;6.43;5.57;;;8.80;99.90;;;;;;5072205;28;20604;-70
2021/05/04 00:14:12;;;;;;;5.90;5.10;;;8.80;99.90;;;;;;5069545;28;20199;-70
2021/05/04 00:16:38;;;;;;;5.40;4.40;;;8.90;99.90;;;;;;5071225;28;20207;-69
2021/05/04 00:19:05;;;;;;;6.37;4.77;;;8.90;99.90;;;;;;5071827;28;20214;-70
2021/05/04 00:21:32;;;;;;;7.00;4.97;;;8.90;99.90;;;;;;5082256;28;20235;-70
2021/05/04 00:23:59;;;;;;;6.50;4.67;;;9.00;99.90;;;;;;5078463;28;20203;-69
2021/05/04 00:26:25;;;;;;;6.90;5.00;;;8.90;99.90;;;;;;5069140;28;20194;-72
2021/05/04 00:28:52;;;;;;;5.23;4.73;;;8.90;99.90;;;;;;5071277;28;20206;-70
2021/05/04 00:31:18;;;;;;;7.57;4.93;;;8.80;99.90;;;;;;5071496;28;20203;-71
2021/05/04 00:33:45;;;;;;;8.80;5.60;;;8.80;99.90;;;;;;5084942;28;20202;-70
2021/05/04 00:36:11;;;;;;;5.37;4.87;;;8.70;99.90;;;;;;5078691;28;20203;-71
2021/05/04 00:38:38;;;;;;;4.87;3.93;;;8.60;99.90;;;;;;5073720;28;20214;-70
2021/05/04 00:41:05;;;;;;;9.00;5.17;;;8.60;99.90;;;;;;5074927;28;20206;-69
2021/05/04 00:43:33;;;;;;;6.10;4.93;;;8.60;99.90;;;;;;5070970;28;20216;-72
2021/05/04 00:46:00;;;;;;;5.83;4.80;;;8.60;99.90;;;;;;5069802;28;20199;-69
2021/05/04 00:48:28;;;;;;;5.87;5.27;;;8.70;99.90;;;;;;5074445;28;20238;-69
2021/05/04 00:50:55;;;;;;;10.70;5.37;;;8.70;99.90;;;;;;5082207;28;20297;-71
2021/05/04 00:53:21;;;;;;;7.63;5.07;;;8.80;99.90;;;;;;5082005;28;20647;-69
2021/05/04 00:55:49;;;;;;;6.33;4.87;;;8.80;99.90;;;;;;5092290;28;20206;-70
2021/05/04 00:58:16;;;;;;;5.43;4.93;;;8.80;99.90;;;;;;5081722;28;20671;-70
2021/05/04 01:00:42;;;;;;;5.40;4.80;;;8.80;99.90;;;;;;5072930;28;20206;-71
2021/05/04 01:03:11;;;;;;;5.60;4.87;;;8.90;99.90;;;;;;5069728;28;20436;-70
2021/05/04 01:05:38;;;;;;;8.83;4.93;;;8.90;99.90;;;;;;5072692;28;20289;-70
2021/05/04 01:08:05;;;;;;;5.93;4.63;;;9.00;99.90;;;;;;5078260;28;20222;-70
2021/05/04 01:10:31;;;;;;;7.63;4.93;;;9.00;99.90;;;;;;5070608;28;20202;-71
2021/05/04 01:12:59;;;;;;;5.40;4.07;;;9.10;99.90;;;;;;5070548;28;20199;-69
2021/05/04 01:15:26;;;;;;;4.93;4.40;;;9.10;99.90;;;;;;5070828;28;20230;-70
2021/05/04 01:17:53;;;;;;;7.10;5.30;;;9.20;99.90;;;;;;5071153;28;20253;-69
2021/05/04 01:20:19;;;;;;;4.97;4.47;;;9.30;99.90;;;;;;5070021;28;20195;-71
2021/05/04 01:22:47;;;;;;;6.83;4.87;;;9.30;99.90;;;;;;5068519;28;20222;-69
2021/05/04 01:25:14;;;;;;;5.10;4.60;;;9.30;99.90;;;;;;5072140;28;20199;-70
2021/05/04 01:27:41;;;;;;;5.17;4.67;;;9.30;99.90;;;;;;5070940;28;20239;-70
2021/05/04 01:30:08;;;;;;;6.33;4.83;;;9.30;99.90;;;;;;5069392;28;20215;-69
2021/05/04 01:32:35;;;;;;;4.97;4.23;;;9.30;99.90;;;;;;5068745;28;20198;-70
2021/05/04 01:35:01;;;;;;;4.93;4.23;;;9.30;99.90;;;;;;5068878;28;20211;-70
2021/05/04 01:37:28;;;;;;;10.43;4.37;;;9.20;99.90;;;;;;5069406;28;20273;-69
2021/05/04 01:39:55;;;;;;;5.30;4.43;;;9.20;99.90;;;;;;5068951;28;20209;-70
2021/05/04 01:42:22;;;;;;;4.77;4.37;;;9.10;99.90;;;;;;5068089;28;20263;-70
2021/05/04 01:44:49;;;;;;;7.20;4.27;;;9.10;99.90;;;;;;5069202;28;20202;-70
2021/05/04 01:47:16;;;;;;;4.77;4.27;;;9.00;99.90;;;;;;5066122;28;20725;-70
2021/05/04 01:49:42;;;;;;;4.37;3.57;;;9.00;99.90;;;;;;5070178;28;20195;-69
2021/05/04 01:52:11;;;;;;;5.87;4.80;;;9.00;99.90;;;;;;5069822;28;20631;-69
2021/05/04 01:54:38;;;;;;;5.43;4.17;;;8.90;99.90;;;;;;5068692;28;20195;-71
2021/05/04 01:57:06;;;;;;;7.13;4.73;;;8.90;99.90;;;;;;5072149;28;20199;-70
2021/05/04 01:59:34;;;;;;;5.93;4.27;;;8.90;99.90;;;;;;5074835;28;20199;-71
2021/05/04 02:02:00;;;;;;;6.83;4.30;;;8.80;99.90;;;;;;5091308;28;20203;-69
2021/05/04 02:04:30;;;;;;;5.53;4.40;;;8.80;99.90;;;;;;5070185;28;20244;-70
2021/05/04 02:06:57;;;;;;;4.50;4.10;;;8.80;99.90;;;;;;5069547;28;20211;-69
2021/05/04 02:09:24;;;;;;;4.73;4.20;;;8.80;99.90;;;;;;5068647;28;20209;-71
2021/05/04 02:11:50;;;;;;;3.87;3.57;;;8.90;99.90;;;;;;5067374;28;20236;-70
2021/05/04 02:14:17;;;;;;;4.53;3.90;;;9.00;99.90;;;;;;5073563;28;20195;-69
2021/05/04 02:16:44;;;;;;;5.90;3.17;;;9.00;99.90;;;;;;5066946;28;20203;-70
2021/05/04 02:19:10;;;;;;;6.00;3.67;;;9.10;99.90;;;;;;5068620;28;20252;-70
2021/05/04 02:21:37;;;;;;;5.17;3.27;;;9.20;99.90;;;;;;5068268;28;20194;-70
2021/05/04 02:24:05;;;;;;;3.90;3.30;;;9.20;99.90;;;;;;5067129;28;20241;-69
2021/05/04 02:26:31;;;;;;;6.10;3.20;;;9.30;99.90;;;;;;5067868;28;20209;-70
2021/05/04 02:28:58;;;;;;;4.33;3.10;;;9.40;99.90;;;;;;5069633;28;20222;-69
2021/05/04 02:31:25;;;;;;;3.33;2.80;;;9.40;99.90;;;;;;5066434;28;20206;-70
2021/05/04 02:33:52;;;;;;;4.53;3.43;;;9.30;99.90;;;;;;5068517;28;20206;-69
2021/05/04 02:36:18;;;;;;;5.40;3.73;;;9.20;99.90;;;;;;5067598;28;20195;-70
2021/05/04 02:38:45;;;;;;;6.40;3.77;;;9.00;99.90;;;;;;5069537;28;20655;-70
2021/05/04 02:41:12;;;;;;;3.67;3.37;;;8.90;99.90;;;;;;5067537;28;20233;-70
2021/05/04 02:43:38;;;;;;;5.97;3.77;;;8.80;99.90;;;;;;5069732;28;20195;-71
2021/05/04 02:46:06;;;;;;;4.07;3.63;;;8.70;99.90;;;;;;5064586;28;20210;-69
2021/05/04 02:48:39;;;;;;;5.50;4.20;;;8.70;99.90;;;;;;5067771;28;20222;-71
2021/05/04 02:51:07;;;;;;;4.23;3.43;;;8.70;99.90;;;;;;5066715;28;20731;-70
2021/05/04 02:53:33;;;;;;;4.27;3.87;;;8.70;99.90;;;;;;5068573;28;20230;-70
2021/05/04 02:56:00;;;;;;;4.37;3.80;;;8.70;99.90;;;;;;5069007;28;20248;-70
2021/05/04 02:58:27;;;;;;;7.23;4.10;;;8.70;99.90;;;;;;5070114;28;20248;-69
2021/05/04 03:00:54;;;;;;;4.50;4.10;;;8.70;99.90;;;;;;5067166;28;20205;-70
2021/05/04 03:03:20;;;;;;;4.33;3.93;;;8.70;99.90;;;;;;5069148;28;20590;-69
2021/05/04 03:05:48;;;;;;;7.70;4.63;;;8.70;99.90;;;;;;5068644;28;20606;-69
2021/05/04 03:08:14;;;;;;;6.63;4.67;;;8.70;99.90;;;;;;5075898;28;20227;-69
2021/05/04 03:10:41;;;;;;;5.33;4.17;;;8.70;99.90;;;;;;5073191;28;20191;-70
2021/05/04 03:13:07;;;;;;;5.37;4.17;;;8.70;99.90;;;;;;5070959;28;20198;-69
2021/05/04 03:15:34;;;;;;;5.17;3.93;;;8.80;99.90;;;;;;5070377;28;20206;-69
2021/05/04 03:18:01;;;;;;;6.83;4.37;;;8.80;99.90;;;;;;5068970;28;21596;-70
2021/05/04 03:20:28;;;;;;;8.17;5.03;;;8.70;99.90;;;;;;5066742;28;20652;-70
2021/05/04 03:22:56;;;;;;;8.33;4.50;;;8.70;99.90;;;;;;5066794;28;20199;-71
2021/05/04 03:25:22;;;;;;;6.80;4.87;;;8.70;99.90;;;;;;5070619;28;20199;-72
2021/05/04 03:27:49;;;;;;;5.70;4.37;;;8.70;99.90;;;;;;5066865;28;20215;-72
2021/05/04 03:30:16;;;;;;;6.60;4.77;;;8.70;99.90;;;;;;5067689;28;20213;-72
2021/05/04 03:32:43;;;;;;;3.73;3.37;;;8.70;99.90;;;;;;5069439;28;20199;-71
2021/05/04 03:35:10;;;;;;;4.33;3.40;;;8.60;99.90;;;;;;5068940;28;20203;-70
2021/05/04 03:37:37;;;;;;;4.70;3.70;;;8.70;99.90;;;;;;5069855;28;20652;-70
2021/05/04 03:40:06;;;;;;;5.83;4.97;;;8.70;99.90;;;;;;5071022;28;20202;-70
2021/05/04 03:42:32;;;;;;;7.30;4.63;;;8.70;99.90;;;;;;5069019;28;20256;-70
2021/05/04 03:44:59;;;;;;;7.20;4.90;;;8.70;99.90;;;;;;5072032;28;20209;-70
2021/05/04 03:47:25;;;;;;;6.97;4.03;;;8.70;99.90;;;;;;5069350;28;20268;-70
2021/05/04 03:49:52;;;;;;;6.53;3.90;;;8.70;99.90;;;;;;5072846;28;20203;-70
2021/05/04 03:52:18;;;;;;;8.63;3.80;;;8.70;99.90;;;;;;5070932;28;20239;-71
2021/05/04 03:54:45;;;;;;;5.23;3.20;;;8.70;99.90;;;;;;5074601;28;20210;-70
2021/05/04 03:57:12;;;;;;;0.00;0.00;;;8.80;99.90;;;;;;5072948;28;20323;-70
2021/05/04 03:59:39;;;;;;;0.00;0.00;;;8.90;99.90;;;;;;5071354;28;20244;-70
2021/05/04 04:02:06;;;;;;;0.40;0.37;;;8.90;99.90;;;;;;5070785;28;20207;-70
2021/05/04 04:04:32;;;;;;;0.07;0.07;;;8.90;99.90;;;;;;5072143;28;20202;-70
2021/05/04 04:06:59;;;;;;;0.00;0.00;;;9.00;99.90;;;;;;5074489;28;20203;-69
2021/05/04 04:09:25;;;;;;;0.00;0.00;;;9.00;99.90;;;;;;5072364;28;20201;-70
2021/05/04 04:11:52;;;;;;;0.10;0.10;;;9.00;99.90;;;;;;5085415;28;20245;-69
2021/05/04 04:14:19;;;;;;;0.00;0.00;;;9.00;99.90;;;;;;5073052;28;20225;-70
2021/05/04 04:16:46;;;;;;;0.00;0.00;;;9.00;99.90;;;;;;5071007;28;20202;-69
2021/05/04 04:19:13;;;;;;;0.00;0.00;;;9.00;99.90;;;;;;5071618;28;20274;-68
2021/05/04 04:21:39;;;;;;;0.00;0.00;;;9.00;99.90;;;;;;5072048;28;20207;-68
2021/05/04 04:24:07;;;;;;;0.00;0.00;;;9.00;99.90;;;;;;5075238;28;20195;-68
2021/05/04 04:26:33;;;;;;;0.00;0.00;;;9.00;99.90;;;;;;5075020;28;20202;-69
2021/05/04 04:29:00;;;;;;;0.00;0.00;;;9.00;99.90;;;;;;5073443;28;20231;-69
2021/05/04 04:31:27;;;;;;;0.00;0.00;;;8.90;99.90;;;;;;5072820;28;20207;-70
2021/05/04 04:33:54;;;;;;;1.90;0.50;;;9.00;99.90;;;;;;5073633;28;20198;-68
2021/05/04 04:36:20;;;;;;;0.00;0.00;;;9.00;99.90;;;;;;5071511;28;20535;-68
2021/05/04 04:38:47;;;;;;;0.00;0.00;;;9.00;99.90;;;;;;5073969;28;20191;-69
2021/05/04 04:41:13;;;;;;;0.00;0.00;;;9.00;99.90;;;;;;5072793;28;20683;-68
2021/05/04 04:43:40;;;;;;;0.00;0.00;;;9.00;99.90;;;;;;5071426;28;20203;-69
2021/05/04 04:46:06;;;;;;;8.63;2.07;;;9.00;99.90;;;;;;5070657;28;20556;-68
2021/05/04 04:48:34;;;;;;;12.93;3.10;;;9.00;99.90;;;;;;5071459;28;20294;-67
2021/05/04 04:51:00;;;;;;;0.00;0.00;;;9.00;99.90;;;;;;5069289;28;20194;-67
2021/05/04 04:53:27;;;;;;;0.00;0.00;;;9.00;99.90;;;;;;5073261;28;20226;-68
2021/05/04 04:55:53;;;;;;;0.00;0.00;;;8.90;99.90;;;;;;5073021;28;20199;-69
2021/05/04 04:58:20;;;;;;;0.00;0.00;;;8.90;99.90;;;;;;5073050;28;20634;-69
2021/05/04 05:00:46;;;;;;;0.00;0.00;;;8.90;99.90;;;;;;5074562;28;20195;-69
2021/05/04 05:03:12;;;;;;;0.00;0.00;;;8.90;99.90;;;;;;5070337;28;20202;-69
2021/05/04 05:05:40;;;;;;;0.00;0.00;;;8.90;99.90;;;;;;5072497;28;20606;-69
2021/05/04 05:08:06;;;;;;;0.27;0.27;;;8.90;99.90;;;;;;5076103;28;20265;-69
2021/05/04 05:10:33;;;;;;;0.20;0.20;;;8.90;99.90;;;;;;5074957;28;20203;-69
2021/05/04 05:12:59;;;;;;;0.00;0.00;;;9.00;99.90;;;;;;5078856;28;20235;-68
2021/05/04 05:15:28;;;;;;;0.50;0.50;;;8.90;99.90;;;;;;5066399;28;20203;-68
2021/05/04 05:17:55;;;;;;;0.00;0.00;;;8.90;99.90;;;;;;5073730;28;20247;-69
2021/05/04 05:20:21;;;;;;;0.00;0.00;;;8.90;99.90;;;;;;5072211;28;20199;-66
2021/05/04 05:22:49;;;;;;;0.00;0.00;;;9.00;99.90;;;;;;5078427;28;20705;-67
2021/05/04 05:25:15;;;;;;;0.00;0.00;;;9.00;99.90;;;;;;5081564;28;20207;-66
2021/05/04 05:27:42;;;;;;;0.00;0.00;;;9.10;99.90;;;;;;5073604;28;20230;-67
2021/05/04 05:30:09;;;;;;;0.10;0.10;;;9.10;99.90;;;;;;5071886;28;20221;-68
2021/05/04 05:32:35;;;;;;;0.00;0.00;;;9.20;99.90;;;;;;5070113;28;20571;-68
2021/05/04 05:35:02;;;;;;;0.00;0.00;;;9.20;99.90;;;;;;5063913;28;20227;-67
2021/05/04 05:37:28;;;;;;;8.77;2.67;;;9.20;99.90;;;;;;5075338;28;20212;-67
2021/05/04 05:39:56;;;;;;;14.47;5.07;;;9.20;99.90;;;;;;5088028;28;20199;-67
2021/05/04 05:42:22;;;;;;;15.83;3.57;;;9.20;99.90;;;;;;5068606;28;20195;-68
2021/05/04 05:44:49;;;;;;;18.27;6.93;;;9.20;99.90;;;;;;5063731;28;20199;-67
2021/05/04 05:47:15;;;;;;;19.27;5.13;;;9.20;99.90;;;;;;5068800;28;20226;-67
2021/05/04 05:49:42;;;;;;;21.40;4.10;;;9.20;99.90;;;;;;5066426;28;20256;-69
2021/05/04 05:52:09;;;;;;;12.90;4.33;;;9.20;99.90;;;;;;5067305;28;20233;-68
2021/05/04 05:54:36;;;;;;;19.47;4.97;;;9.20;99.90;;;;;;5070514;28;20202;-68
2021/05/04 05:57:04;;;;;;;16.03;3.67;;;9.20;99.90;;;;;;5064867;28;20206;-68
2021/05/04 05:59:31;;;;;;;19.70;4.40;;;9.10;99.90;;;;;;5067473;28;20217;-68
2021/05/04 06:01:58;;;;;;;21.10;4.57;;;9.20;99.90;;;;;;5067850;28;20195;-69
2021/05/04 06:04:24;;;;;;;20.17;5.50;;;9.20;99.90;;;;;;5069056;28;20660;-68
2021/05/04 06:06:51;;;;;;;17.97;4.83;;;9.20;99.90;;;;;;5068141;28;20241;-68
2021/05/04 06:09:17;;;;;;;0.00;0.00;;;9.20;99.90;;;;;;5070152;28;20237;-69
2021/05/04 06:11:44;;;;;;;0.00;0.00;;;9.10;99.90;;;;;;5069331;28;20935;-69
2021/05/04 06:14:11;;;;;;;0.30;0.30;;;9.10;99.90;;;;;;5068921;28;20198;-69
2021/05/04 06:16:38;;;;;;;0.00;0.00;;;9.00;99.90;;;;;;5069094;28;20195;-69
2021/05/04 06:19:04;;;;;;;0.00;0.00;;;9.00;99.90;;;;;;5068952;28;20256;-70
2021/05/04 06:21:31;;;;;;;0.60;0.57;;;9.00;99.90;;;;;;5068923;28;20202;-68
2021/05/04 06:23:58;;;;;;;6.13;1.13;;;9.10;99.90;;;;;;5067120;28;20217;-69
2021/05/04 06:26:24;;;;;;;3.23;0.93;;;9.10;99.90;;;;;;5067797;28;20199;-69
2021/05/04 06:28:51;;;;;;;0.00;0.00;;;9.10;99.90;;;;;;5068027;28;20234;-69
2021/05/04 06:31:20;;;;;;;0.43;0.43;;;9.20;99.90;;;;;;5067992;28;20289;-69
2021/05/04 06:33:48;;;;;;;0.00;0.00;;;9.20;99.90;;;;;;5067379;28;20286;-69
2021/05/04 06:36:15;;;;;;;3.30;0.77;;;9.20;99.90;;;;;;5068842;28;20194;-69
2021/05/04 06:38:41;;;;;;;0.43;0.43;;;9.30;99.90;;;;;;5067368;28;20272;-68
2021/05/04 06:41:08;;;;;;;0.00;0.00;;;9.30;99.90;;;;;;5068342;28;20195;-68
2021/05/04 06:43:35;;;;;;;0.00;0.00;;;9.40;99.90;;;;;;5068502;28;20195;-67
2021/05/04 06:46:03;;;;;;;0.00;0.00;;;9.40;99.90;;;;;;5069810;28;20223;-67
2021/05/04 06:48:30;;;;;;;0.00;0.00;;;9.50;99.90;;;;;;5071233;28;20242;-65
2021/05/04 06:50:57;;;;;;;0.00;0.00;;;9.70;99.90;;;;;;5071940;28;20199;-67
2021/05/04 06:53:24;;;;;;;0.00;0.00;;;9.80;99.90;;;;;;5091645;28;20238;-64
2021/05/04 06:55:51;;;;;;;8.77;3.20;;;9.80;99.90;;;;;;5088775;28;20621;-67
2021/05/04 06:58:18;;;;;;;12.57;3.63;;;10.00;99.90;;;;;;5071171;28;20198;-69
2021/05/04 07:00:45;;;;;;;20.23;3.67;;;10.00;99.90;;;;;;5066325;28;20265;-68
2021/05/04 07:03:11;;;;;;;18.47;4.13;;;10.00;99.90;;;;;;5067637;28;20198;-70
2021/05/04 07:05:39;;;;;;;14.30;4.23;;;10.00;99.90;;;;;;5066576;28;20197;-70
2021/05/04 07:08:05;;;;;;;17.30;4.70;;;10.00;99.90;;;;;;5062247;28;21751;-70
2021/05/04 07:10:32;;;;;;;20.47;4.60;;;10.00;99.90;;;;;;5070794;28;20191;-70
2021/05/04 07:12:59;;;;;;;21.77;4.83;;;10.10;99.90;;;;;;5070684;28;20198;-68
2021/05/04 07:15:25;;;;;;;17.30;4.77;;;10.10;99.90;;;;;;5065175;28;20194;-69
2021/05/04 07:17:52;;;;;;;17.63;4.80;;;10.10;99.90;;;;;;5067472;28;20206;-67
2021/05/04 07:20:20;;;;;;;16.63;4.33;;;10.10;99.90;;;;;;5069282;28;20271;-69
2021/05/04 07:22:52;;;;;;;17.33;4.80;;;10.10;99.90;;;;;;5067704;28;20198;-69
2021/05/04 07:25:19;;;;;;;17.87;4.50;;;10.20;99.90;;;;;;5071970;28;20191;-69
2021/05/04 07:27:46;;;;;;;12.33;3.37;;;10.30;99.90;;;;;;5078131;28;20238;-69
2021/05/04 07:30:14;;;;;;;18.70;4.40;;;10.40;99.90;;;;;;5068774;28;20199;-69
2021/05/04 07:32:41;;;;;;;12.63;4.63;;;10.50;99.90;;;;;;5074238;28;20884;-68
2021/05/04 07:35:08;;;;;;;19.37;5.40;;;10.50;99.90;;;;;;5070073;28;20671;-68
2021/05/04 07:37:38;;;;;;;16.77;4.73;;;10.50;99.90;;;;;;5074585;28;20210;-70
2021/05/04 07:40:07;;;;;;;14.13;5.07;;;10.60;99.90;;;;;;5071364;28;20203;-68
2021/05/04 07:42:34;;;;;;;18.63;5.50;;;10.60;99.90;;;;;;5073452;28;20218;-68
2021/05/04 07:45:01;;;;;;;16.03;4.97;;;10.50;99.90;;;;;;5079165;28;20206;-67
2021/05/04 07:47:27;;;;;;;13.03;3.90;;;10.60;99.90;;;;;;5077447;28;20225;-63
2021/05/04 07:49:55;;;;;;;16.60;4.70;;;10.60;99.90;;;;;;5073341;28;20256;-65
2021/05/04 07:52:22;;;;;;;10.87;3.93;;;10.70;99.90;;;;;;5088586;28;20253;-68
2021/05/04 07:54:51;;;;;;;15.40;4.13;;;10.70;99.90;;;;;;5074050;28;20205;-64
2021/05/04 07:57:18;;;;;;;16.70;4.27;;;10.70;99.90;;;;;;5082015;28;20254;-63
2021/05/04 07:59:45;;;;;;;10.40;4.47;;;10.80;99.90;;;;;;5085177;28;20205;-65
2021/05/04 08:02:11;;;;;;;12.87;3.77;;;10.90;99.90;;;;;;5086325;28;20206;-63
2021/05/04 08:04:38;;;;;;;17.53;4.70;;;10.80;99.90;;;;;;5086529;28;20669;-65
2021/05/04 08:07:06;;;;;;;15.17;4.70;;;10.90;99.90;;;;;;5079057;28;20289;-64
2021/05/04 08:09:33;;;;;;;12.47;4.63;;;10.80;99.90;;;;;;5091408;28;20242;-63
2021/05/04 08:11:59;;;;;;;8.77;4.13;;;10.60;99.90;;;;;;5074402;28;20588;-65
2021/05/04 08:14:27;;;;;;;12.47;3.77;;;10.40;99.90;;;;;;5077160;28;20206;-65
2021/05/04 08:16:54;;;;;;;10.80;4.70;;;10.30;99.90;;;;;;5090680;28;20203;-65
2021/05/04 08:19:21;;;;;;;21.43;4.50;;;10.20;99.90;;;;;;5093810;28;20194;-65
2021/05/04 08:21:48;;;;;;;13.83;3.87;;;10.20;99.90;;;;;;5073587;28;20211;-70
2021/05/04 08:24:14;;;;;;;14.90;3.30;;;10.40;99.90;;;;;;5082261;28;20725;-64
2021/05/04 08:26:41;;;;;;;11.30;4.20;;;10.80;99.90;;;;;;5085941;28;20939;-65
2021/05/04 08:29:08;;;;;;;17.87;4.97;;;11.00;99.90;;;;;;5092467;28;20230;-68
2021/05/04 08:31:36;;;;;;;10.17;3.33;;;10.80;99.90;;;;;;5090092;28;20191;-69
2021/05/04 08:34:02;;;;;;;18.30;4.10;;;10.60;99.90;;;;;;5074763;28;20210;-65
2021/05/04 08:36:30;;;;;;;13.30;3.57;;;10.50;99.90;;;;;;5094653;28;20198;-64
2021/05/04 08:38:57;;;;;;;6.87;2.43;;;10.30;99.90;;;;;;5094141;28;20202;-66
2021/05/04 08:41:24;;;;;;;8.03;2.07;;;10.10;99.90;;;;;;5099570;28;20224;-66
2021/05/04 08:43:52;;;;;;;6.63;2.10;;;10.10;99.90;;;;;;5067186;28;20294;-69
2021/05/04 08:46:20;;;;;;;4.77;1.43;;;10.20;99.90;;;;;;5075593;28;20203;-66
2021/05/04 08:48:48;;;;;;;2.53;1.33;;;10.30;99.90;;;;;;5073678;28;20368;-70
2021/05/04 08:51:16;;;;;;;4.60;1.83;;;10.40;99.90;;;;;;5090931;28;20647;-66
2021/05/04 08:53:44;;;;;;;3.07;1.50;;;10.50;99.90;;;;;;5092996;28;20194;-66
2021/05/04 08:56:13;;;;;;;7.97;1.83;;;10.40;99.90;;;;;;5082807;28;20639;-65
2021/05/04 08:58:40;;;;;;;5.63;2.10;;;10.50;99.90;;;;;;5085363;28;20206;-65
2021/05/04 09:01:06;;;;;;;4.20;1.60;;;10.80;99.90;;;;;;5074749;28;20538;-65
2021/05/04 09:03:36;;;;;;;2.63;1.57;;;11.40;99.90;;;;;;5074063;28;20206;-66
2021/05/04 09:06:06;;;;;;;4.03;1.17;;;11.60;99.90;;;;;;5092837;28;20199;-66
2021/05/04 09:08:37;;;;;;;5.17;1.63;;;11.30;99.90;;;;;;5092733;28;20214;-65
2021/05/04 09:11:37;;;;;;;4.63;1.80;;;11.20;99.90;;;;;;5103852;28;20308;-67
2021/05/04 09:14:10;;;;;;;8.13;2.00;;;11.10;99.90;;;;;;5081897;28;20195;-67
2021/05/04 09:16:47;;;;;;;5.00;1.70;;;11.10;99.90;;;;;;5081492;28;20201;-65
2021/05/04 09:19:37;;;;;;;2.13;1.07;;;12.20;99.90;;;;;;5100002;28;20195;-67
2021/05/04 09:22:05;;;;;;;3.90;1.10;;;13.20;99.90;;;;;;5089460;28;20194;-65
2021/05/04 09:24:39;;;;;;;5.87;1.47;;;12.20;99.90;;;;;;5081958;28;20201;-66
2021/05/04 09:27:07;;;;;;;2.77;1.07;;;11.60;99.90;;;;;;5091408;28;20193;-66
2021/05/04 09:29:36;;;;;;;5.13;1.10;;;11.80;99.90;;;;;;5092582;28;20226;-67
2021/05/04 09:32:11;;;;;;;6.30;1.50;;;12.50;99.90;;;;;;5093140;28;20198;-67
2021/05/04 09:34:49;;;;;;;3.40;1.07;;;12.90;99.90;;;;;;5085013;28;20205;-67
2021/05/04 09:37:30;;;;;;;3.03;1.47;;;13.30;99.90;;;;;;5078093;28;20194;-76
2021/05/04 09:40:16;;;;;;;4.60;1.50;;;12.40;99.90;;;;;;5080197;28;20195;-70
2021/05/04 09:42:43;;;;;;;4.30;1.60;;;11.40;99.90;;;;;;5092958;28;20198;-65
2021/05/04 09:45:21;;;;;;;2.93;1.93;;;11.50;99.90;;;;;;5078470;28;20202;-66
2021/05/04 09:47:48;;;;;;;4.07;1.50;;;12.40;99.90;;;;;;5082635;28;20217;-65
2021/05/04 09:50:15;;;;;;;7.70;2.07;;;13.00;99.90;;;;;;5076101;28;20214;-73
2021/05/04 09:52:45;;;;;;;3.50;1.30;;;13.60;99.90;;;;;;5074813;28;20309;-65
2021/05/04 09:55:14;;;;;;;4.37;1.67;;;13.80;99.90;;;;;;5071926;28;20199;-66
2021/05/04 09:57:42;;;;;;;4.87;1.87;;;13.80;99.90;;;;;;5079630;28;20987;-65
2021/05/04 10:00:11;;;;;;;4.77;1.37;;;14.30;99.90;;;;;;5073988;28;20202;-64
2021/05/04 10:02:39;;;;;;;4.03;1.00;;;13.60;99.90;;;;;;5072412;28;20648;-63
2021/05/04 10:05:07;;;;;;;2.10;1.20;;;12.90;99.90;;;;;;5077195;28;20203;-64
2021/05/04 10:07:34;;;;;;;3.47;1.13;;;12.30;99.90;;;;;;5076944;28;20231;-63
2021/05/04 10:10:03;;;;;;;3.83;1.37;;;12.00;99.90;;;;;;5076330;28;20206;-64
2021/05/04 10:12:30;;;;;;;3.70;1.57;;;11.60;99.90;;;;;;5079718;28;20205;-76
2021/05/04 10:15:03;;;;;;;4.63;1.20;;;11.60;99.90;;;;;;5075177;28;20560;-71
2021/05/04 10:17:33;;;;;;;3.23;1.40;;;11.80;99.90;;;;;;5069366;28;20575;-76
2021/05/04 10:20:04;;;;;;;6.30;1.93;;;11.80;99.90;;;;;;5072032;28;20198;-67
2021/05/04 10:22:30;;;;;;;4.33;1.83;;;12.50;99.90;;;;;;5077490;28;20188;-63
2021/05/04 10:24:58;;;;;;;3.57;1.33;;;12.60;99.90;;;;;;5071549;28;20203;-64
2021/05/04 10:27:26;;;;;;;2.13;1.70;;;13.00;99.90;;;;;;5072888;28;20225;-65
2021/05/04 10:29:54;;;;;;;5.13;1.53;;;12.90;99.90;;;;;;5072474;28;20199;-64
2021/05/04 10:32:48;;;;;;;5.63;1.67;;;12.80;99.90;;;;;;5072931;28;20558;-63
2021/05/04 10:35:33;;;;;;;3.47;1.40;;;12.50;99.90;;;;;;5072396;28;20672;-64
2021/05/04 10:38:00;;;;;;;6.83;1.80;;;12.00;99.90;;;;;;5064883;28;20203;-66
2021/05/04 10:40:30;;;;;;;3.77;1.63;;;11.80;99.90;;;;;;5072432;28;20210;-64
2021/05/04 10:42:58;;;;;;;7.40;1.83;;;11.90;99.90;;;;;;5072652;28;20297;-64
2021/05/04 10:45:39;;;;;;;6.60;1.87;;;12.10;99.90;;;;;;5072449;28;20206;-64
2021/05/04 10:48:06;;;;;;;7.17;1.87;;;12.30;99.90;;;;;;5079287;28;20607;-64
2021/05/04 10:50:50;;;;;;;8.27;1.60;;;12.40;99.90;;;;;;5073668;28;20213;-63
2021/05/04 10:53:18;;;;;;;7.10;1.77;;;12.60;99.90;;;;;;5074056;28;20241;-63
2021/05/04 10:56:09;;;;;;;6.07;1.60;;;12.80;99.90;;;;;;5078535;28;20190;-63
2021/05/04 10:58:47;;;;;;;4.37;1.33;;;12.60;99.90;;;;;;5062037;28;20195;-63
2021/05/04 11:01:18;;;;;;;6.30;2.17;;;12.50;99.90;;;;;;5071868;28;20644;-65
2021/05/04 11:03:58;;;;;;;4.73;1.40;;;12.60;99.90;;;;;;5072347;28;20191;-64
2021/05/04 11:06:47;;;;;;;3.80;1.33;;;12.60;99.90;;;;;;5084461;28;20648;-63
2021/05/04 11:09:16;;;;;;;7.57;1.60;;;12.50;99.90;;;;;;5090036;28;20209;-65
2021/05/04 11:11:45;;;;;;;3.67;1.40;;;12.30;99.90;;;;;;5073991;28;20202;-65
2021/05/04 11:14:30;;;;;;;6.60;1.47;;;12.10;99.90;;;;;;5071239;28;20201;-65
2021/05/04 11:17:11;;;;;;;9.63;2.10;;;12.20;99.90;;;;;;5078130;28;20284;-64
2021/05/04 11:19:41;;;;;;;5.53;1.30;;;12.20;99.90;;;;;;5072348;28;20194;-62
2021/05/04 11:22:10;;;;;;;4.97;1.47;;;12.50;99.90;;;;;;5086788;28;20205;-63
2021/05/04 11:24:41;;;;;;;5.60;1.43;;;12.70;99.90;;;;;;5073652;28;20203;-63
2021/05/04 11:27:28;;;;;;;5.50;1.40;;;12.70;99.90;;;;;;5084980;28;20186;-63
2021/05/04 11:29:59;;;;;;;4.00;1.00;;;12.90;99.90;;;;;;5084865;28;20206;-75
2021/05/04 11:32:28;;;;;;;7.00;1.43;;;13.10;99.90;;;;;;5089665;28;20216;-71
2021/05/04 11:34:59;;;;;;;5.70;1.20;;;12.80;99.90;;;;;;5071492;28;20202;-63
2021/05/04 11:37:44;;;;;;;7.47;1.53;;;12.30;99.90;;;;;;5076429;28;20548;-62
2021/05/04 11:40:16;;;;;;;5.30;1.80;;;12.30;99.90;;;;;;5073893;28;20202;-63
2021/05/04 11:42:45;;;;;;;11.37;2.17;;;12.50;99.90;;;;;;5076753;28;20240;-71
2021/05/04 11:45:14;;;;;;;6.97;1.93;;;12.60;99.90;;;;;;5071345;28;20296;-71
2021/05/04 11:47:41;;;;;;;6.37;1.80;;;12.60;99.90;;;;;;5071168;28;20243;-68
2021/05/04 11:50:11;;;;;;;3.93;1.37;;;12.50;99.90;;;;;;5069423;28;20195;-70
2021/05/04 11:52:40;;;;;;;6.77;1.43;;;12.70;99.90;;;;;;5073617;28;20231;-70
2021/05/04 11:55:19;;;;;;;6.67;1.40;;;12.70;99.90;;;;;;5070539;28;20199;-64
2021/05/04 11:57:47;;;;;;;2.50;1.77;;;12.80;99.90;;;;;;5072299;28;20205;-63
2021/05/04 12:00:21;;;;;;;8.27;1.83;;;12.70;99.90;;;;;;5070720;28;20202;-66
2021/05/04 12:02:48;;;;;;;7.57;1.67;;;12.60;99.90;;;;;;5072365;28;20245;-66
2021/05/04 12:05:23;;;;;;;6.83;1.70;;;12.50;99.90;;;;;;5076414;28;20613;-62
2021/05/04 12:07:50;;;;;;;5.90;1.93;;;12.40;99.90;;;;;;5077271;28;20235;-71
2021/05/04 12:10:37;;;;;;;7.67;1.63;;;12.30;99.90;;;;;;5077358;28;20323;-64
2021/05/04 12:13:06;;;;;;;6.03;1.90;;;12.30;99.90;;;;;;5074745;28;22267;-67
2021/05/04 12:15:35;;;;;;;7.37;1.53;;;12.30;99.90;;;;;;5076716;28;20204;-69
2021/05/04 12:18:11;;;;;;;8.93;2.07;;;12.40;99.90;;;;;;5074445;28;20206;-68
2021/05/04 12:20:40;;;;;;;4.47;1.40;;;12.40;99.90;;;;;;5076444;28;20654;-67
2021/05/04 12:23:08;;;;;;;11.80;2.30;;;12.20;99.90;;;;;;5077501;28;20199;-68
2021/05/04 12:25:56;;;;;;;5.63;1.67;;;12.10;99.90;;;;;;5071050;28;20195;-75
2021/05/04 12:28:26;;;;;;;4.77;1.50;;;12.20;99.90;;;;;;5074447;28;20257;-75
2021/05/04 12:31:00;;;;;;;8.57;1.70;;;12.20;99.90;;;;;;5079201;28;20201;-75
2021/05/04 12:33:27;;;;;;;5.73;1.47;;;12.10;99.90;;;;;;5077920;28;20213;-75
2021/05/04 12:35:59;;;;;;;7.77;2.00;;;12.00;99.90;;;;;;5075681;28;20202;-74
2021/05/04 12:38:28;;;;;;;4.50;1.57;;;12.20;99.90;;;;;;5073640;28;20547;-75
2021/05/04 12:41:04;;;;;;;2.10;1.10;;;12.50;99.90;;;;;;5073578;28;20279;-74
2021/05/04 12:43:32;;;;;;;5.37;2.57;;;12.40;99.90;;;;;;5073626;28;20285;-74
2021/05/04 12:46:11;;;;;;;8.17;1.87;;;12.20;99.90;;;;;;5076207;28;20225;-75
2021/05/04 12:48:39;;;;;;;5.97;1.40;;;12.00;99.90;;;;;;5073281;28;20390;-74
2021/05/04 12:51:08;;;;;;;6.47;1.87;;;12.00;99.90;;;;;;5075525;28;20207;-74
2021/05/04 12:53:37;;;;;;;9.87;1.70;;;12.00;99.90;;;;;;5074512;28;20226;-73
2021/05/04 12:56:09;;;;;;;5.13;1.50;;;12.00;99.90;;;;;;5074684;28;20546;-73
2021/05/04 12:59:03;;;;;;;5.43;1.33;;;12.20;99.90;;;;;;5075876;28;20240;-73